1990 NORBERT (1990253N12248)


On this page: IBTrACS data - Map and Plots - Positions - Intensities - Original source data

Summary

Start Sep 10
End Sep 19
Basin EP
LMI 70 kt
Sources hurdat_epa
jtwc_ep
atcf
In WMO? Yes
Related storms 1990253N13258
Previous storm 1990 MARIE (EP)
Previous in basin 1990 MARIE (EP)
Concurrent storms 1990 DOT (WP)
1990 ISIDORE (NA)
1990 ED (WP)
1990 FLO (WP)
1990 MARIE (EP)
1990 NORBERT (EP)
1990 MISSING (EP)
1990 DOT-2 (WP)
1990 GENE (WP)
1990 MISSING (NA)
1991 HSK0191 (SI)
Next in basin 1990 MISSING (EP)
Next storm 1990 MISSING (EP)

top of page IBTrACS Data: File Access

top of page HURSAT Data: File Access

Image of storm

top of page Plots:

Map of storm track will not appear if FTP is down
Time series of cyclone Maximum Sustained Wind will not appear if FTP is down
Time series of cyclone Minimum Central Pressure will not appear if FTP is down

top of page Track Data:Position

hurdat_epa jtwc_ep atcf
Date Lat Lon Lat Lon Lat Lon
1990-09-10 00:00:00 12.2 -111.6 12.2 -111.6 12.2 -111.6
1990-09-10 06:00:00 12.4 -111.8 12.4 -111.8 12.4 -111.8
1990-09-10 12:00:00 12.7 -111.9 12.7 -111.9 12.7 -111.9
1990-09-10 18:00:00 13.1 -111.9 13.1 -111.9 13.1 -111.9
1990-09-11 00:00:00 13.4 -112.0 13.4 -112.0 13.4 -112.0
1990-09-11 06:00:00 13.7 -112.3 13.7 -112.3 13.7 -112.3
1990-09-11 12:00:00 14.3 -112.6 14.3 -112.6 14.3 -112.6
1990-09-11 18:00:00 15.3 -112.7 15.3 -112.7 15.3 -112.7
1990-09-12 00:00:00 16.2 -112.7 16.2 -112.7 16.2 -112.7
1990-09-12 06:00:00 17.0 -112.8 17.0 -112.8 17.0 -112.8
1990-09-12 12:00:00 18.1 -113.5 18.1 -113.5 18.1 -113.5
1990-09-12 18:00:00 19.3 -114.6 19.3 -114.6 19.3 -114.6
1990-09-13 00:00:00 19.9 -115.7 19.9 -115.7 19.9 -115.7
1990-09-13 06:00:00 20.1 -116.6 20.1 -116.6 20.1 -116.6
1990-09-13 12:00:00 20.1 -117.5 20.1 -117.5 20.1 -117.5
1990-09-13 18:00:00 20.4 -118.3 20.4 -118.3 20.4 -118.3
1990-09-14 00:00:00 20.7 -119.3 20.7 -119.3 20.7 -119.3
1990-09-14 06:00:00 20.8 -120.3 20.8 -120.3 20.8 -120.3
1990-09-14 12:00:00 21.0 -121.4 21.0 -121.4 21.0 -121.4
1990-09-14 18:00:00 21.2 -122.5 21.2 -122.5 21.2 -122.5
1990-09-15 00:00:00 21.1 -123.5 21.1 -123.5 21.1 -123.5
1990-09-15 06:00:00 21.1 -124.4 21.1 -124.4 21.1 -124.4
1990-09-15 12:00:00 21.0 -125.3 21.0 -125.3 21.0 -125.3
1990-09-15 18:00:00 20.9 -126.2 20.9 -126.2 20.9 -126.2
1990-09-16 00:00:00 20.8 -126.9 20.8 -126.9 20.8 -126.9
hurdat_epa jtwc_ep atcf
1990-09-16 06:00:00 20.7 -127.4 20.7 -127.4 20.7 -127.4
1990-09-16 12:00:00 20.7 -127.6 20.7 -127.6 20.7 -127.6
1990-09-16 18:00:00 20.9 -127.7 20.9 -127.7 20.9 -127.7
1990-09-17 00:00:00 21.3 -127.8 21.3 -127.8 21.3 -127.8
1990-09-17 06:00:00 21.6 -128.0 21.6 -128.0 21.6 -128.0
1990-09-17 12:00:00 21.9 -128.2 21.9 -128.2 21.9 -128.2
1990-09-17 18:00:00 22.3 -128.5 22.3 -128.5 22.3 -128.5
1990-09-18 00:00:00 22.7 -128.6 22.7 -128.6 22.7 -128.6
1990-09-18 06:00:00 22.9 -128.7 22.9 -128.7 22.9 -128.7
1990-09-18 12:00:00 23.1 -128.8 23.1 -128.8 23.1 -128.8
1990-09-18 18:00:00 23.2 -129.2 23.2 -129.2 23.2 -129.2
1990-09-19 00:00:00 23.2 -129.9 23.2 -129.9 23.2 -129.9
1990-09-19 06:00:00 23.1 -130.7 23.1 -130.7 23.1 -130.7
1990-09-19 12:00:00 22.9 -131.6 22.9 -131.6 22.9 -131.6

top of pageTrack Data:Intensity

hurdat_epa jtwc_ep atcf
Date Wind Pres Wind Pres Wind Pres
1990-09-10 00:00:00 25. 1009. 25. 25. 1009.
1990-09-10 06:00:00 30. 1009. 30. 30. 1009.
1990-09-10 12:00:00 30. 1008. 30. 30. 1008.
1990-09-10 18:00:00 35. 1005. 35. 35. 1005.
1990-09-11 00:00:00 40. 1002. 40. 40. 1002.
1990-09-11 06:00:00 45. 1000. 45. 45. 1000.
1990-09-11 12:00:00 45. 1000. 45. 45. 1000.
1990-09-11 18:00:00 45. 1000. 45. 45. 1000.
1990-09-12 00:00:00 45. 1000. 45. 45. 1000.
1990-09-12 06:00:00 45. 1003. 45. 45. 1003.
1990-09-12 12:00:00 40. 1005. 40. 40. 1005.
1990-09-12 18:00:00 35. 1005. 35. 35. 1005.
1990-09-13 00:00:00 40. 1002. 40. 40. 1002.
1990-09-13 06:00:00 45. 1000. 45. 45. 1000.
1990-09-13 12:00:00 50. 995. 50. 50. 995.
1990-09-13 18:00:00 55. 992. 55. 55. 992.
1990-09-14 00:00:00 65. 987. 65. 65. 987.
1990-09-14 06:00:00 65. 987. 65. 65. 987.
1990-09-14 12:00:00 65. 987. 65. 65. 987.
1990-09-14 18:00:00 65. 987. 65. 65. 987.
1990-09-15 00:00:00 65. 985. 65. 65. 985.
1990-09-15 06:00:00 70. 983. 70. 70. 983.
1990-09-15 12:00:00 65. 987. 65. 65. 987.
1990-09-15 18:00:00 55. 993. 55. 55. 993.
1990-09-16 00:00:00 55. 993. 55. 55. 993.
hurdat_epa jtwc_ep atcf
1990-09-16 06:00:00 55. 993. 55. 55. 993.
1990-09-16 12:00:00 55. 993. 55. 55. 993.
1990-09-16 18:00:00 55. 995. 55. 55. 995.
1990-09-17 00:00:00 50. 998. 50. 50. 998.
1990-09-17 06:00:00 45. 999. 45. 45. 999.
1990-09-17 12:00:00 45. 1000. 45. 45. 1000.
1990-09-17 18:00:00 40. 1002. 40. 40. 1002.
1990-09-18 00:00:00 35. 1005. 35. 35. 1005.
1990-09-18 06:00:00 30. 1007. 30. 30. 1007.
1990-09-18 12:00:00 30. 1010. 30. 30. 1010.
1990-09-18 18:00:00 25. 1010. 25. 25. 1010.
1990-09-19 00:00:00 25. 1010. 25. 25. 1010.
1990-09-19 06:00:00 25. 1010. 25. 25. 1010.
1990-09-19 12:00:00 20. 1011. 20. 20. 1011.

top of page Links to source data

Source Source file Format
hurdat_epa tracks1949to2011_epa.html:561:NORBERT HURDAT
jtwc_ep bep171990.txt ATCF
atcf bep171990.dat ATCF